Terminal Aerodrome Forecast
Issued by NWS

Home | Current Version | Previous Version | Graphics & Text | Print | Product List | Glossary On
Versions: 1 2 3 4 5 6 7 8 9 10 11 12 13 14 15 16 17 18
586
FTUS43 KABR 170520
TAFPIR
TAF
KPIR 170520Z 1706/1806 28007KT P6SM SKC
     FM171600 24007KT P6SM FEW250
     FM172000 19008KT P6SM FEW250=

USA.gov is the U.S. government's official web portal to all federal, state and local government web resources and services.